ESCF

Malmen Air Base Airport

Linköping, Sweden
METAR ESCF 221920Z AUTO 23004KT 9999 NCD 19/11 Q1010
Observed Flight Rules
Jul-22 @ 19:20 UTC (30 minutes ago) Visual Flight Rules
Wind Visibility Clouds
230° at 4 knots 10,000+ meters
  • Clear skies
Temperatures Readings
Current 19°C / 66°F
Dewpoint 11°C / 52°F
Humidity 60%
Altimeter 29.82" Hg
Pressure 1010 hPa
Elevation 117
METAR ESCF 221920Z AUTO 23004KT 9999 NCD 19/11 Q1010
Observed Flight Rules
Jul-22 @ 19:20 UTC
(30 minutes ago)
VFR
Wind Visibility
230° at 4 knots 10,000+ meters
Clouds
  • Clear skies
Temperature Dewpoint
19°C / 66°F 11°C / 52°F
Humidity Altimeter Pressure
60% 29.82" Hg 1010 hPa